Time;durP1;ratioP1;P1;durP2;ratioP2;P2;SDS_P1;SDS_P2;PMS_P1;PMS_P2;Temp;Humidity;BMP_temperature;BMP_pressure;BME280_temperature;BME280_humidity;BME280_pressure;Samples;Min_cycle;Max_cycle;Signal;HPM_P1;HPM_P2
2022/03/10 00:00:53;;;;;;;;;;;205.00;1638.40;;;;;;5036506;28;19996;-59
2022/03/10 00:03:19;;;;;;;;;;;205.00;1638.40;;;;;;5036116;28;20347;-59
2022/03/10 00:05:44;;;;;;;;;;;205.00;1638.40;;;;;;5036127;28;19920;-57
2022/03/10 00:08:10;;;;;;;;;;;205.00;1638.40;;;;;;5036791;28;19940;-58
2022/03/10 00:10:35;;;;;;;;;;;205.00;1638.40;;;;;;5036615;28;19909;-59
2022/03/10 00:13:01;;;;;;;;;;;205.00;1638.40;;;;;;5036375;28;20024;-57
2022/03/10 00:15:27;;;;;;;;;;;205.00;1638.40;;;;;;5036246;28;20442;-59
2022/03/10 00:17:53;;;;;;;;;;;205.00;1638.40;;;;;;5035839;28;19983;-59
2022/03/10 00:20:20;;;;;;;;;;;205.00;1638.40;;;;;;5036173;28;20004;-59
2022/03/10 00:22:47;;;;;;;;;;;205.00;1638.40;;;;;;5036177;28;19910;-56
2022/03/10 00:25:13;;;;;;;;;;;204.90;1664.00;;;;;;5035827;28;20354;-57
2022/03/10 00:27:39;;;;;;;;;;;204.90;1638.40;;;;;;5035896;28;19916;-57
2022/03/10 00:30:05;;;;;;;;;;;204.90;1638.40;;;;;;5035914;28;19913;-57
2022/03/10 00:32:31;;;;;;;;;;;204.90;1664.00;;;;;;5035881;28;20000;-59
2022/03/10 00:34:56;;;;;;;;;;;204.90;1638.40;;;;;;5035934;28;19955;-60
2022/03/10 00:37:22;;;;;;;;;;;204.90;1664.00;;;;;;5035695;28;19946;-57
2022/03/10 00:39:48;;;;;;;;;;;204.90;1638.40;;;;;;5036165;28;19920;-57
2022/03/10 00:42:13;;;;;;;;;;;204.80;1638.40;;;;;;5035656;28;19932;-60
2022/03/10 00:44:39;;;;;;;;;;;204.90;1664.00;;;;;;5035624;28;20031;-60
2022/03/10 00:47:04;;;;;;;;;;;204.90;1664.00;;;;;;5035569;28;19910;-60
2022/03/10 00:49:30;;;;;;;;;;;204.80;1664.00;;;;;;5035534;28;19940;-58
2022/03/10 00:51:55;;;;;;;;;;;204.80;1664.00;;;;;;5035460;28;20381;-57
2022/03/10 00:54:21;;;;;;;;;;;204.90;1664.00;;;;;;5035369;28;20365;-57
2022/03/10 00:56:47;;;;;;;;;;;204.80;1664.00;;;;;;5035405;28;19909;-57
2022/03/10 00:59:12;;;;;;;;;;;204.80;1664.00;;;;;;5035372;28;20246;-60
2022/03/10 01:01:38;;;;;;;;;;;204.80;1664.00;;;;;;5035250;28;19909;-59
2022/03/10 01:04:04;;;;;;;;;;;204.80;1664.00;;;;;;5035035;28;20286;-56
2022/03/10 01:06:29;;;;;;;;;;;204.80;1664.00;;;;;;5034993;28;19913;-56
2022/03/10 01:08:55;;;;;;;;;;;204.80;1664.00;;;;;;5035328;28;19992;-56
2022/03/10 01:11:20;;;;;;;;;;;204.80;1664.00;;;;;;5035127;28;20263;-56
2022/03/10 01:13:46;;;;;;;;;;;204.80;1664.00;;;;;;5033847;28;19909;-60
2022/03/10 01:16:12;;;;;;;;;;;204.80;1664.00;;;;;;5035026;28;19920;-57
2022/03/10 01:18:37;;;;;;;;;;;204.80;1664.00;;;;;;5034700;28;19925;-60
2022/03/10 01:21:03;;;;;;;;;;;204.80;1689.60;;;;;;5034961;28;19912;-60
2022/03/10 01:23:28;;;;;;;;;;;204.80;1689.60;;;;;;5034649;28;19909;-57
2022/03/10 01:25:54;;;;;;;;;;;180.10;1689.60;;;;;;5034931;28;19909;-60
2022/03/10 01:28:20;;;;;;;;;;;204.80;1689.60;;;;;;5034729;28;19910;-59
2022/03/10 01:30:45;;;;;;;;;;;180.10;1689.60;;;;;;5034820;28;19909;-59
2022/03/10 01:33:11;;;;;;;;;;;204.80;1689.60;;;;;;5034616;28;20424;-59
2022/03/10 01:35:37;;;;;;;;;;;180.10;1689.60;;;;;;5034651;28;19909;-59
2022/03/10 01:38:02;;;;;;;;;;;204.80;1689.60;;;;;;5034426;28;19960;-57
2022/03/10 01:40:28;;;;;;;;;;;180.10;1715.20;;;;;;5034334;28;19917;-59
2022/03/10 01:42:54;;;;;;;;;;;204.80;1689.60;;;;;;5034631;28;20243;-56
2022/03/10 01:45:19;;;;;;;;;;;204.80;1715.20;;;;;;5034544;28;20001;-59
2022/03/10 01:47:45;;;;;;;;;;;204.80;1689.60;;;;;;5034421;28;20004;-57
2022/03/10 01:50:12;;;;;;;;;;;180.10;1715.20;;;;;;5034628;28;19916;-59
2022/03/10 01:52:38;;;;;;;;;;;180.10;1715.20;;;;;;5034233;28;19916;-57
2022/03/10 01:55:04;;;;;;;;;;;204.80;1689.60;;;;;;5034494;28;20267;-59
2022/03/10 01:57:30;;;;;;;;;;;204.80;1715.20;;;;;;5034268;28;19909;-57
2022/03/10 01:59:56;;;;;;;;;;;204.80;1715.20;;;;;;5034285;28;19940;-59
2022/03/10 02:02:21;;;;;;;;;;;204.80;1715.20;;;;;;5034160;28;19925;-57
2022/03/10 02:04:47;;;;;;;;;;;180.10;1715.20;;;;;;5034233;28;19953;-57
2022/03/10 02:12:42;;;;;;;;;;;180.10;1715.20;;;;;;5034584;28;19967;-58
2022/03/10 02:17:55;;;;;;;;;;;180.10;1715.20;;;;;;5034116;28;20317;-60
2022/03/10 02:20:20;;;;;;;;;;;180.10;1715.20;;;;;;5034145;28;19913;-57
2022/03/10 02:22:46;;;;;;;;;;;180.10;1715.20;;;;;;5034150;28;20394;-58
2022/03/10 02:25:13;;;;;;;;;;;180.10;1715.20;;;;;;5034066;28;19936;-58
2022/03/10 02:27:38;;;;;;;;;;;204.80;1715.20;;;;;;5034014;28;20382;-57
2022/03/10 02:30:04;;;;;;;;;;;180.10;1715.20;;;;;;5034119;28;19909;-57
2022/03/10 02:32:30;;;;;;;;;;;180.10;1715.20;;;;;;5034002;28;19910;-57
2022/03/10 02:34:55;;;;;;;;;;;180.10;1715.20;;;;;;5034064;28;19909;-58
2022/03/10 02:37:21;;;;;;;;;;;180.10;1715.20;;;;;;5034372;28;20386;-57
2022/03/10 02:39:47;;;;;;;;;;;180.10;1715.20;;;;;;5033835;28;19917;-57
2022/03/10 02:42:13;;;;;;;;;;;180.10;1715.20;;;;;;5033973;28;19910;-56
2022/03/10 02:44:39;;;;;;;;;;;180.10;1715.20;;;;;;5033724;28;19996;-58
2022/03/10 02:47:05;;;;;;;;;;;180.10;1740.80;;;;;;5033914;28;19909;-59
2022/03/10 02:49:30;;;;;;;;;;;180.10;1715.20;;;;;;5034054;28;19905;-56
2022/03/10 02:51:56;;;;;;;;;;;180.10;1715.20;;;;;;5033928;28;20387;-60
2022/03/10 02:54:22;;;;;;;;;;;180.10;1715.20;;;;;;5036916;28;20274;-59
2022/03/10 02:56:47;;;;;;;;;;;180.10;1715.20;;;;;;5037701;28;19909;-57
2022/03/10 02:59:13;;;;;;;;;;;180.10;1740.80;;;;;;5037705;28;20267;-58
2022/03/10 03:01:38;;;;;;;;;;;180.10;1740.80;;;;;;5037469;28;20267;-58
2022/03/10 03:04:04;;;;;;;;;;;180.10;1715.20;;;;;;5037533;28;19964;-57
2022/03/10 03:06:30;;;;;;;;;;;180.00;1740.80;;;;;;5037538;28;19960;-58
2022/03/10 03:08:55;;;;;;;;;;;180.10;1715.20;;;;;;5037325;28;20266;-59
2022/03/10 03:11:21;;;;;;;;;;;180.00;1740.80;;;;;;5037386;28;19909;-57
2022/03/10 03:13:46;;;;;;;;;;;180.00;1740.80;;;;;;5037361;28;19910;-59
2022/03/10 03:16:12;;;;;;;;;;;180.00;1715.20;;;;;;5037164;28;19909;-57
2022/03/10 03:18:37;;;;;;;;;;;180.10;1715.20;;;;;;5037046;28;19924;-57
2022/03/10 03:21:03;;;;;;;;;;;180.10;1715.20;;;;;;5037065;28;19909;-58
2022/03/10 03:23:28;;;;;;;;;;;180.10;1715.20;;;;;;5037337;28;19992;-57
2022/03/10 03:25:54;;;;;;;;;;;180.10;1715.20;;;;;;5037038;28;20281;-57
2022/03/10 03:28:22;;;;;;;;;;;180.10;1715.20;;;;;;5037083;28;20004;-57
2022/03/10 03:30:48;;;;;;;;;;;180.10;1715.20;;;;;;5037220;28;20248;-57
2022/03/10 03:33:14;;;;;;;;;;;204.80;1715.20;;;;;;5036915;28;19931;-57
2022/03/10 03:35:39;;;;;;;;;;;180.10;1715.20;;;;;;5036752;28;19999;-57
2022/03/10 03:38:05;;;;;;;;;;;204.80;1715.20;;;;;;5036978;28;19917;-57
2022/03/10 03:40:30;;;;;;;;;;;180.10;1715.20;;;;;;5036916;28;20378;-57
2022/03/10 03:42:56;;;;;;;;;;;180.10;1689.60;;;;;;5036808;28;19920;-59
2022/03/10 03:45:22;;;;;;;;;;;180.10;1715.20;;;;;;5036649;28;19913;-59
2022/03/10 03:47:48;;;;;;;;;;;180.10;1715.20;;;;;;5036565;28;19909;-59
2022/03/10 03:50:13;;;;;;;;;;;180.10;1715.20;;;;;;5036742;28;19917;-59
2022/03/10 03:52:39;;;;;;;;;;;180.10;1689.60;;;;;;5036732;28;19935;-58
2022/03/10 03:55:05;;;;;;;;;;;180.10;1689.60;;;;;;5036603;28;20266;-57
2022/03/10 03:57:31;;;;;;;;;;;204.80;1689.60;;;;;;5036189;28;19932;-57
2022/03/10 03:59:56;;;;;;;;;;;180.10;1664.00;;;;;;5036589;28;19920;-59
2022/03/10 04:02:22;;;;;;;;;;;180.10;1638.40;;;;;;5036183;28;20034;-57
2022/03/10 04:04:47;;;;;;;;;;;180.10;1638.40;;;;;;5035732;28;19909;-59
2022/03/10 04:07:14;;;;;;;;;;;180.10;1638.40;;;;;;5036524;28;19909;-59
2022/03/10 04:09:40;;;;;;;;;;;180.10;1612.80;;;;;;5036424;28;19932;-57
2022/03/10 04:12:05;;;;;;;;;;;180.10;1612.80;;;;;;5036330;28;20359;-59
2022/03/10 04:14:31;;;;;;;;;;;180.00;1587.20;;;;;;5035974;28;20466;-59
2022/03/10 04:16:57;;;;;;;;;;;180.00;1561.60;;;;;;5036206;28;19955;-59
2022/03/10 04:19:22;;;;;;;;;;;180.00;1561.60;;;;;;5036018;28;19917;-57
2022/03/10 04:21:48;;;;;;;;;;;180.00;1561.60;;;;;;5035889;28;20108;-57
2022/03/10 04:24:13;;;;;;;;;;;179.90;1536.00;;;;;;5036127;28;19909;-58
2022/03/10 04:26:40;;;;;;;;;;;179.90;1536.00;;;;;;5035897;28;19959;-58
2022/03/10 04:29:05;;;;;;;;;;;179.90;1536.00;;;;;;5035789;28;19909;-59
2022/03/10 04:31:31;;;;;;;;;;;179.90;1536.00;;;;;;5035776;28;19962;-59
2022/03/10 04:33:56;;;;;;;;;;;179.80;1510.40;;;;;;5035880;28;19956;-59
2022/03/10 04:36:22;;;;;;;;;;;179.80;1510.40;;;;;;5035819;28;19917;-59
2022/03/10 04:38:47;;;;;;;;;;;179.70;1510.40;;;;;;5035702;28;19917;-57
2022/03/10 04:41:13;;;;;;;;;;;179.70;1510.40;;;;;;5035739;28;20271;-60
2022/03/10 04:43:39;;;;;;;;;;;179.70;1510.40;;;;;;5035563;28;19909;-60
2022/03/10 04:46:04;;;;;;;;;;;179.70;1536.00;;;;;;5035670;28;19909;-57
2022/03/10 04:48:30;;;;;;;;;;;179.60;1510.40;;;;;;5035531;28;19916;-57
2022/03/10 04:50:56;;;;;;;;;;;179.70;1510.40;;;;;;5035534;28;19913;-59
2022/03/10 04:53:21;;;;;;;;;;;179.70;1510.40;;;;;;5035368;28;20240;-57
2022/03/10 04:55:47;;;;;;;;;;;179.60;1510.40;;;;;;5035275;28;19909;-60
2022/03/10 04:58:13;;;;;;;;;;;179.60;1510.40;;;;;;5035276;28;19953;-57
2022/03/10 05:00:38;;;;;;;;;;;179.60;1484.80;;;;;;5035408;28;19913;-61
2022/03/10 05:03:04;;;;;;;;;;;179.60;1459.20;;;;;;5035035;28;20453;-57
2022/03/10 05:05:29;;;;;;;;;;;179.60;1459.20;;;;;;5035124;28;19909;-58
2022/03/10 05:07:55;;;;;;;;;;;179.60;1459.20;;;;;;5035038;28;19910;-67
2022/03/10 05:10:21;;;;;;;;;;;179.50;1433.60;;;;;;5034437;28;19963;-63
2022/03/10 05:12:57;;;;;;;;;;;180.00;1843.20;;;;;;5034977;28;19909;-62
2022/03/10 05:15:26;;;;;;;;;;;205.30;1638.40;;;;;;5034291;28;20026;-61
2022/03/10 05:17:52;;;;;;;;;;;230.40;1638.40;;;;;;5024674;28;21946;-59
2022/03/10 05:20:18;;;;;;;;;;;230.50;1433.60;;;;;;5034559;28;19948;-58
2022/03/10 05:22:45;;;;;;;;;;;205.70;1382.40;;;;;;5034584;28;19909;-64
2022/03/10 05:25:11;;;;;;;;;;;205.50;1382.40;;;;;;5034433;28;20014;-58
2022/03/10 05:27:37;;;;;;;;;;;205.30;1382.40;;;;;;5034402;28;19913;-58
2022/03/10 05:30:04;;;;;;;;;;;205.20;1382.40;;;;;;5034626;28;19955;-58
2022/03/10 05:32:29;;;;;;;;;;;205.00;1382.40;;;;;;5034095;28;19909;-59
2022/03/10 05:34:55;;;;;;;;;;;204.90;1382.40;;;;;;5034458;28;19963;-58
2022/03/10 05:37:21;;;;;;;;;;;204.80;1382.40;;;;;;5034185;28;19971;-58
2022/03/10 05:39:47;;;;;;;;;;;180.10;1382.40;;;;;;5033927;28;20363;-58
2022/03/10 05:42:12;;;;;;;;;;;180.00;1382.40;;;;;;5034561;28;20001;-57
2022/03/10 05:44:38;;;;;;;;;;;180.00;1408.00;;;;;;5034373;28;19910;-57
2022/03/10 05:47:04;;;;;;;;;;;180.00;1408.00;;;;;;5033887;28;19909;-58
2022/03/10 05:49:30;;;;;;;;;;;179.90;1408.00;;;;;;5034403;28;19909;-58
2022/03/10 05:51:56;;;;;;;;;;;179.90;1382.40;;;;;;5034135;28;19909;-60
2022/03/10 05:54:21;;;;;;;;;;;179.90;1382.40;;;;;;5034186;28;19921;-60
2022/03/10 05:56:47;;;;;;;;;;;179.90;1356.80;;;;;;5034363;28;19916;-60
2022/03/10 05:59:12;;;;;;;;;;;179.80;1356.80;;;;;;5034171;28;19916;-60
2022/03/10 06:01:38;;;;;;;;;;;179.70;1382.40;;;;;;5033602;28;20309;-57
2022/03/10 06:04:03;;;;;;;;;;;179.70;1382.40;;;;;;5033853;28;19924;-59
2022/03/10 06:06:29;;;;;;;;;;;179.70;1382.40;;;;;;5033996;28;20385;-60
2022/03/10 06:08:55;;;;;;;;;;;179.50;1382.40;;;;;;5034266;28;19910;-58
2022/03/10 06:11:20;;;;;;;;;;;179.50;1382.40;;;;;;5033761;28;20000;-60
2022/03/10 06:13:46;;;;;;;;;;;179.50;1382.40;;;;;;5034436;28;19917;-65
2022/03/10 06:16:11;;;;;;;;;;;179.50;1382.40;;;;;;5034111;28;20287;-57
2022/03/10 06:18:37;;;;;;;;;;;179.50;1382.40;;;;;;5033521;28;20449;-60
2022/03/10 06:21:02;;;;;;;;;;;179.40;1382.40;;;;;;5033832;28;19909;-60
2022/03/10 06:23:28;;;;;;;;;;;179.40;1356.80;;;;;;5033681;28;20000;-58
2022/03/10 06:25:54;;;;;;;;;;;179.50;1356.80;;;;;;5033803;28;19909;-59
2022/03/10 06:28:19;;;;;;;;;;;179.50;1331.20;;;;;;5037304;28;19952;-58
2022/03/10 06:30:45;;;;;;;;;;;179.40;1356.80;;;;;;5037870;28;19909;-57
2022/03/10 06:33:10;;;;;;;;;;;179.50;1331.20;;;;;;5037609;28;20278;-60
2022/03/10 06:35:36;;;;;;;;;;;179.50;1331.20;;;;;;5037529;28;19932;-58
2022/03/10 06:38:02;;;;;;;;;;;179.50;1305.60;;;;;;5037947;28;19924;-58
2022/03/10 06:40:27;;;;;;;;;;;179.30;1331.20;;;;;;5037824;28;19913;-58
2022/03/10 06:42:53;;;;;;;;;;;179.30;1305.60;;;;;;5038076;28;19916;-58
2022/03/10 06:45:19;;;;;;;;;;;179.30;1305.60;;;;;;5037812;28;20042;-58
2022/03/10 06:47:44;;;;;;;;;;;179.30;1331.20;;;;;;5037719;28;19956;-59
2022/03/10 06:50:10;;;;;;;;;;;179.40;1331.20;;;;;;5037568;28;20351;-59
2022/03/10 06:52:35;;;;;;;;;;;179.30;1280.00;;;;;;5035938;28;19914;-59
2022/03/10 06:55:01;;;;;;;;;;;179.30;1280.00;;;;;;5036096;28;20358;-58
2022/03/10 06:57:26;;;;;;;;;;;179.30;1280.00;;;;;;5036071;28;19974;-60
2022/03/10 06:59:52;;;;;;;;;;;179.30;1280.00;;;;;;5036075;28;19921;-58
2022/03/10 07:02:17;;;;;;;;;;;179.20;1254.40;;;;;;5036214;28;19921;-65
2022/03/10 07:04:43;;;;;;;;;;;179.20;1254.40;;;;;;5037429;28;20289;-59
2022/03/10 07:07:09;;;;;;;;;;;179.30;1254.40;;;;;;5037720;28;19909;-57
2022/03/10 07:09:35;;;;;;;;;;;179.30;1254.40;;;;;;5037158;28;20382;-57
2022/03/10 07:12:00;;;;;;;;;;;179.30;1254.40;;;;;;5037439;28;20016;-59
2022/03/10 07:14:26;;;;;;;;;;;179.20;1254.40;;;;;;5036752;28;19952;-60
2022/03/10 07:16:52;;;;;;;;;;;179.30;1254.40;;;;;;5036654;28;19994;-58
2022/03/10 07:19:23;;;;;;;;;;;179.30;1228.80;;;;;;5036640;28;20351;-59
2022/03/10 07:21:48;;;;;;;;;;;179.30;1254.40;;;;;;5037176;28;20303;-57
2022/03/10 07:24:14;;;;;;;;;;;179.30;1254.40;;;;;;5037226;28;19916;-58
2022/03/10 07:26:40;;;;;;;;;;;179.30;1254.40;;;;;;5036587;28;20263;-58
2022/03/10 07:29:05;;;;;;;;;;;179.40;1254.40;;;;;;5036965;28;19916;-58
2022/03/10 07:31:31;;;;;;;;;;;179.50;1254.40;;;;;;5037193;28;19916;-59
2022/03/10 07:33:57;;;;;;;;;;;179.50;1228.80;;;;;;5035530;28;19920;-59
2022/03/10 07:36:23;;;;;;;;;;;179.50;1203.20;;;;;;5036308;28;19999;-59
2022/03/10 07:38:49;;;;;;;;;;;179.60;1203.20;;;;;;5035206;28;19928;-60
2022/03/10 07:41:14;;;;;;;;;;;179.70;1203.20;;;;;;5036697;28;19913;-58
2022/03/10 07:43:40;;;;;;;;;;;179.70;1228.80;;;;;;5036873;28;19916;-65
2022/03/10 07:46:06;;;;;;;;;;;179.80;1382.40;;;;;;5036816;28;20325;-60
2022/03/10 07:48:32;;;;;;;;;;;180.00;1280.00;;;;;;5036473;28;19916;-60
2022/03/10 07:50:57;;;;;;;;;;;180.10;1228.80;;;;;;5036553;28;19917;-60
2022/03/10 07:53:23;;;;;;;;;;;180.10;1203.20;;;;;;5036369;28;20020;-58
2022/03/10 07:55:51;;;;;;;;;;;180.10;1203.20;;;;;;5036254;28;19957;-59
2022/03/10 07:58:17;;;;;;;;;;;204.80;1203.20;;;;;;5036598;28;19918;-60
2022/03/10 08:00:43;;;;;;;;;;;204.80;1203.20;;;;;;5036637;28;20351;-60
2022/03/10 08:03:08;;;;;;;;;;;204.90;1203.20;;;;;;5036246;28;19929;-59
2022/03/10 08:05:34;;;;;;;;;;;204.90;1177.60;;;;;;5036405;28;19999;-58
2022/03/10 08:08:01;;;;;;;;;;;205.00;1177.60;;;;;;5036463;28;19909;-58
2022/03/10 08:10:27;;;;;;;;;;;205.00;1177.60;;;;;;5036308;28;20000;-58
2022/03/10 08:12:52;;;;;;;;;;;205.00;1152.00;;;;;;5036415;28;19999;-58
2022/03/10 08:15:18;;;;;;;;;;;205.10;1177.60;;;;;;5036324;28;19916;-60
2022/03/10 08:17:44;;;;;;;;;;;205.10;1177.60;;;;;;5034678;28;20327;-58
2022/03/10 08:20:10;;;;;;;;;;;205.20;1152.00;;;;;;5036220;28;19975;-60
2022/03/10 08:22:35;;;;;;;;;;;205.30;1152.00;;;;;;5036143;28;20367;-60
2022/03/10 08:25:01;;;;;;;;;;;205.30;1152.00;;;;;;5035968;28;19910;-58
2022/03/10 08:27:26;;;;;;;;;;;205.30;1152.00;;;;;;5035921;28;19916;-59
2022/03/10 08:29:52;;;;;;;;;;;205.40;1152.00;;;;;;5036334;28;19913;-59
2022/03/10 08:32:19;;;;;;;;;;;205.40;1177.60;;;;;;5034444;28;19909;-58
2022/03/10 08:34:45;;;;;;;;;;;205.50;1152.00;;;;;;5035944;28;20305;-58
2022/03/10 08:37:10;;;;;;;;;;;205.60;1126.40;;;;;;5035883;28;20004;-58
2022/03/10 08:39:36;;;;;;;;;;;205.60;1152.00;;;;;;5035636;28;20382;-60
2022/03/10 08:42:02;;;;;;;;;;;205.60;1152.00;;;;;;5035728;28;19913;-60
2022/03/10 08:44:27;;;;;;;;;;;205.70;1126.40;;;;;;5035701;28;19928;-59
2022/03/10 08:46:53;;;;;;;;;;;205.70;1126.40;;;;;;5035670;28;19910;-59
2022/03/10 08:49:18;;;;;;;;;;;230.40;1126.40;;;;;;5035502;28;20333;-58
2022/03/10 08:51:44;;;;;;;;;;;230.50;1126.40;;;;;;5034034;28;19917;-58
2022/03/10 08:54:12;;;;;;;;;;;230.50;1126.40;;;;;;5035661;28;19955;-58
2022/03/10 08:56:38;;;;;;;;;;;230.50;1126.40;;;;;;5035206;28;19909;-59
2022/03/10 08:59:03;;;;;;;;;;;230.60;1126.40;;;;;;5035414;28;20428;-59
2022/03/10 09:01:29;;;;;;;;;;;230.70;1126.40;;;;;;5034574;28;19913;-59
2022/03/10 09:03:55;;;;;;;;;;;230.70;1126.40;;;;;;5035402;28;19952;-60
2022/03/10 09:06:20;;;;;;;;;;;230.70;1100.80;;;;;;5035365;28;20296;-58
2022/03/10 09:08:46;;;;;;;;;;;230.80;1126.40;;;;;;5035171;28;20332;-59
2022/03/10 09:11:11;;;;;;;;;;;230.80;1126.40;;;;;;5035158;28;19913;-59
2022/03/10 09:13:37;;;;;;;;;;;230.80;1100.80;;;;;;5035415;28;20362;-60
2022/03/10 09:16:03;;;;;;;;;;;230.90;1100.80;;;;;;5034982;28;20321;-58
2022/03/10 09:18:29;;;;;;;;;;;231.00;1100.80;;;;;;5034366;28;19917;-60
2022/03/10 09:20:54;;;;;;;;;;;231.00;1100.80;;;;;;5035139;28;19913;-59
2022/03/10 09:23:20;;;;;;;;;;;231.10;1100.80;;;;;;5035179;28;20370;-58
2022/03/10 09:25:45;;;;;;;;;;;231.10;1100.80;;;;;;5034755;28;20005;-59
2022/03/10 09:28:12;;;;;;;;;;;231.20;1100.80;;;;;;5034778;28;20382;-60
2022/03/10 09:30:38;;;;;;;;;;;231.30;1100.80;;;;;;5034946;28;19909;-60
2022/03/10 09:33:03;;;;;;;;;;;231.30;1075.20;;;;;;5033284;28;19932;-60
2022/03/10 09:35:29;;;;;;;;;;;231.30;1075.20;;;;;;5034629;28;20019;-59
2022/03/10 09:37:54;;;;;;;;;;;231.30;1075.20;;;;;;5034844;28;19955;-58
2022/03/10 09:40:20;;;;;;;;;;;256.00;1049.60;;;;;;5034652;28;19913;-59
2022/03/10 09:42:47;;;;;;;;;;;256.00;1049.60;;;;;;5034332;28;19916;-60
2022/03/10 09:45:14;;;;;;;;;;;256.00;1075.20;;;;;;5034383;28;20371;-59
2022/03/10 09:47:40;;;;;;;;;;;256.00;1049.60;;;;;;5034402;28;19909;-60
2022/03/10 09:50:12;;;;;;;;;;;256.10;1049.60;;;;;;5034498;28;19955;-59
2022/03/10 09:52:38;;;;;;;;;;;256.10;1049.60;;;;;;5034392;28;19963;-59
2022/03/10 09:55:04;;;;;;;;;;;256.10;1075.20;;;;;;5034624;28;20004;-59
2022/03/10 09:57:30;;;;;;;;;;;256.00;1075.20;;;;;;5033892;28;19916;-59
2022/03/10 09:59:57;;;;;;;;;;;256.10;1049.60;;;;;;5034152;28;19918;-59
2022/03/10 10:02:23;;;;;;;;;;;256.20;1075.20;;;;;;5033551;28;19952;-59
2022/03/10 10:04:49;;;;;;;;;;;256.20;1049.60;;;;;;5034359;28;19948;-59
2022/03/10 10:07:18;;;;;;;;;;;256.20;1075.20;;;;;;5034360;28;19909;-58
2022/03/10 10:09:48;;;;;;;;;;;256.20;1075.20;;;;;;5034223;28;19944;-60
2022/03/10 10:12:14;;;;;;;;;;;256.30;1049.60;;;;;;5034249;28;19909;-60
2022/03/10 10:14:47;;;;;;;;;;;256.30;1075.20;;;;;;5034126;28;20378;-60
2022/03/10 10:17:13;;;;;;;;;;;256.30;1049.60;;;;;;5033896;28;19920;-59
2022/03/10 10:19:40;;;;;;;;;;;256.30;1075.20;;;;;;5034115;28;19921;-59
2022/03/10 10:22:09;;;;;;;;;;;256.30;1075.20;;;;;;5033942;28;19909;-60
2022/03/10 10:24:37;;;;;;;;;;;256.40;1075.20;;;;;;5034504;28;19995;-59
2022/03/10 10:27:13;;;;;;;;;;;256.40;1075.20;;;;;;5034188;28;19998;-59
2022/03/10 10:30:05;;;;;;;;;;;256.50;1075.20;;;;;;5034080;28;19967;-58
2022/03/10 10:32:32;;;;;;;;;;;256.50;1100.80;;;;;;5031804;28;19909;-60
2022/03/10 10:35:02;;;;;;;;;;;256.50;1075.20;;;;;;5034061;28;19909;-59
2022/03/10 10:37:29;;;;;;;;;;;256.40;1075.20;;;;;;5034083;28;19920;-59
2022/03/10 10:39:56;;;;;;;;;;;256.50;1100.80;;;;;;5033984;28;20012;-62
2022/03/10 10:42:26;;;;;;;;;;;256.40;1100.80;;;;;;5033944;28;19913;-59
2022/03/10 10:44:52;;;;;;;;;;;256.40;1075.20;;;;;;5034031;28;19909;-60
2022/03/10 10:47:17;;;;;;;;;;;256.70;1254.40;;;;;;5033825;28;20436;-60
2022/03/10 10:49:43;;;;;;;;;;;281.80;1254.40;;;;;;5033950;28;20274;-59
2022/03/10 10:52:12;;;;;;;;;;;282.10;1203.20;;;;;;5033909;28;20004;-59
2022/03/10 10:54:37;;;;;;;;;;;282.10;1152.00;;;;;;5033874;28;19932;-57
2022/03/10 10:57:05;;;;;;;;;;;282.00;1126.40;;;;;;5033952;28;19909;-60
2022/03/10 10:59:30;;;;;;;;;;;282.00;1100.80;;;;;;5033214;28;20374;-59
2022/03/10 11:02:14;;;;;;;;;;;281.90;1100.80;;;;;;5033027;28;19936;-58
2022/03/10 11:04:43;;;;;;;;;;;281.80;1075.20;;;;;;5032542;28;19913;-58
2022/03/10 11:07:09;;;;;;;;;;;281.80;1100.80;;;;;;5030532;28;20388;-59
2022/03/10 11:09:36;;;;;;;;;;;281.80;1100.80;;;;;;5033421;28;19916;-59
2022/03/10 11:12:01;;;;;;;;;;;281.80;1075.20;;;;;;5033202;28;19909;-59
2022/03/10 11:14:27;;;;;;;;;;;281.80;1075.20;;;;;;5034793;28;20035;-58
2022/03/10 11:16:53;;;;;;;;;;;281.70;1100.80;;;;;;5036812;28;19910;-57
2022/03/10 11:19:25;;;;;;;;;;;281.70;1100.80;;;;;;5036585;28;20389;-57
2022/03/10 11:21:50;;;;;;;;;;;281.60;1100.80;;;;;;5034240;28;20366;-58
2022/03/10 11:24:25;;;;;;;;;;;281.60;1100.80;;;;;;5036625;28;19909;-56
2022/03/10 11:27:09;;;;;;;;;;;281.60;1100.80;;;;;;5034262;28;19916;-58
2022/03/10 11:29:35;;;;;;;;;;;281.60;1100.80;;;;;;5034645;28;20274;-56
2022/03/10 11:32:03;;;;;;;;;;;256.90;1075.20;;;;;;5036571;28;19916;-57
2022/03/10 11:34:47;;;;;;;;;;;256.90;1075.20;;;;;;5033803;28;20046;-56
2022/03/10 11:37:32;;;;;;;;;;;256.90;1075.20;;;;;;5036206;28;19917;-57
2022/03/10 11:39:57;;;;;;;;;;;256.90;1075.20;;;;;;5033607;28;19924;-57
2022/03/10 11:42:25;;;;;;;;;;;256.80;1075.20;;;;;;5036257;28;19996;-57
2022/03/10 11:45:04;;;;;;;;;;;256.80;1075.20;;;;;;5036326;28;19940;-58
2022/03/10 11:47:29;;;;;;;;;;;256.80;1049.60;;;;;;5035183;28;20370;-58
2022/03/10 11:49:57;;;;;;;;;;;256.70;1075.20;;;;;;5034360;28;19914;-57
2022/03/10 11:52:24;;;;;;;;;;;256.70;1049.60;;;;;;5035913;28;19909;-57
2022/03/10 11:55:02;;;;;;;;;;;256.70;1049.60;;;;;;5036085;28;19913;-57
2022/03/10 11:57:28;;;;;;;;;;;256.70;1049.60;;;;;;5035969;28;19951;-58
2022/03/10 11:59:53;;;;;;;;;;;256.70;1049.60;;;;;;5036273;28;20014;-59
2022/03/10 12:02:29;;;;;;;;;;;256.70;1049.60;;;;;;5036384;28;19921;-60
2022/03/10 12:04:57;;;;;;;;;;;256.80;1049.60;;;;;;5035937;28;19914;-57
2022/03/10 12:07:27;;;;;;;;;;;256.90;1049.60;;;;;;5036057;28;19916;-58
2022/03/10 12:10:04;;;;;;;;;;;256.90;1049.60;;;;;;5035728;28;20383;-56
2022/03/10 12:12:34;;;;;;;;;;;256.90;1024.00;;;;;;5033580;28;19909;-56
2022/03/10 12:15:18;;;;;;;;;;;281.60;1049.60;;;;;;5035595;28;19921;-56
2022/03/10 12:17:44;;;;;;;;;;;256.90;998.40;;;;;;5035839;28;19909;-57
2022/03/10 12:20:10;;;;;;;;;;;281.60;1024.00;;;;;;5035571;28;19917;-57
2022/03/10 12:22:36;;;;;;;;;;;281.60;1024.00;;;;;;5036125;28;19909;-57
2022/03/10 12:25:18;;;;;;;;;;;281.60;1024.00;;;;;;5035173;28;20396;-56
2022/03/10 12:27:50;;;;;;;;;;;281.70;998.40;;;;;;5033209;28;19929;-58
2022/03/10 12:30:18;;;;;;;;;;;281.80;998.40;;;;;;5033079;28;19909;-58
2022/03/10 12:32:45;;;;;;;;;;;281.80;947.20;;;;;;5035175;28;19913;-57
2022/03/10 12:35:11;;;;;;;;;;;281.80;921.60;;;;;;5035468;28;20012;-57
2022/03/10 12:37:36;;;;;;;;;;;281.80;921.60;;;;;;5034575;28;19956;-57
2022/03/10 12:40:02;;;;;;;;;;;281.90;921.60;;;;;;5035065;28;19967;-56
2022/03/10 12:42:28;;;;;;;;;;;281.90;921.60;;;;;;5035061;28;19967;-57
2022/03/10 12:44:56;;;;;;;;;;;282.00;921.60;;;;;;5035644;28;19916;-60
2022/03/10 12:47:21;;;;;;;;;;;282.00;921.60;;;;;;5034835;28;19913;-57
2022/03/10 12:49:50;;;;;;;;;;;282.10;921.60;;;;;;5034951;28;19967;-58
2022/03/10 12:52:17;;;;;;;;;;;282.10;921.60;;;;;;5035328;28;19917;-58
2022/03/10 12:54:43;;;;;;;;;;;282.10;921.60;;;;;;5035566;28;19913;-56
2022/03/10 12:57:10;;;;;;;;;;;282.10;896.00;;;;;;5034394;28;20321;-57
2022/03/10 12:59:37;;;;;;;;;;;282.10;896.00;;;;;;5034260;28;19975;-57
2022/03/10 13:02:12;;;;;;;;;;;282.10;870.40;;;;;;5034439;28;20011;-58
2022/03/10 13:04:57;;;;;;;;;;;282.20;870.40;;;;;;5034441;28;19967;-56
2022/03/10 13:07:24;;;;;;;;;;;282.20;844.80;;;;;;5034408;28;19921;-57
2022/03/10 13:09:50;;;;;;;;;;;282.20;819.20;;;;;;5034472;28;19920;-56
2022/03/10 13:12:37;;;;;;;;;;;282.20;793.60;;;;;;5034619;28;19951;-57
2022/03/10 13:15:04;;;;;;;;;;;282.20;768.00;;;;;;5031885;28;19913;-55
2022/03/10 13:17:30;;;;;;;;;;;282.20;793.60;;;;;;5034778;28;20020;-56
2022/03/10 13:19:56;;;;;;;;;;;282.30;768.00;;;;;;5034943;28;19968;-57
2022/03/10 13:22:21;;;;;;;;;;;282.40;793.60;;;;;;5034247;28;19963;-56
2022/03/10 13:24:50;;;;;;;;;;;282.30;768.00;;;;;;5034023;28;20004;-57
2022/03/10 13:27:17;;;;;;;;;;;282.40;768.00;;;;;;5034255;28;19913;-57
2022/03/10 13:29:43;;;;;;;;;;;282.40;768.00;;;;;;5033809;28;20374;-57
2022/03/10 13:32:11;;;;;;;;;;;282.50;793.60;;;;;;5034821;28;19913;-56
2022/03/10 13:34:40;;;;;;;;;;;282.40;768.00;;;;;;5033784;28;19920;-56
2022/03/10 13:37:10;;;;;;;;;;;282.50;742.40;;;;;;5031329;28;19971;-57
2022/03/10 13:39:36;;;;;;;;;;;282.50;742.40;;;;;;5034426;28;19971;-59
2022/03/10 13:42:06;;;;;;;;;;;307.20;768.00;;;;;;5034136;28;20004;-56
2022/03/10 13:44:34;;;;;;;;;;;307.20;768.00;;;;;;5034031;28;20283;-56
2022/03/10 13:47:07;;;;;;;;;;;282.50;742.40;;;;;;5033458;28;20432;-56